sensor_id;sensor_type;location;lat;lon;timestamp;pressure;altitude;pressure_sealevel;temperature;humidity
69060;BME280;56135;37.534;-122.308;2023-03-26T00:00:03;102296.91;;;12.05;91.45
69060;BME280;56135;37.534;-122.308;2023-03-26T00:02:30;102296.94;;;12.14;92.40
69060;BME280;56135;37.534;-122.308;2023-03-26T00:04:55;102296.94;;;12.15;90.45
69060;BME280;56135;37.534;-122.308;2023-03-26T00:07:21;102301.31;;;12.07;86.33
69060;BME280;56135;37.534;-122.308;2023-03-26T00:09:47;102295.00;;;11.90;88.27
69060;BME280;56135;37.534;-122.308;2023-03-26T00:12:13;102288.81;;;11.89;91.42
69060;BME280;56135;37.534;-122.308;2023-03-26T00:14:39;102286.09;;;11.78;91.26
69060;BME280;56135;37.534;-122.308;2023-03-26T00:17:05;102285.13;;;11.67;95.58
69060;BME280;56135;37.534;-122.308;2023-03-26T00:19:32;102278.88;;;11.59;95.79
69060;BME280;56135;37.534;-122.308;2023-03-26T00:21:59;102282.38;;;11.55;96.43
69060;BME280;56135;37.534;-122.308;2023-03-26T00:24:25;102270.06;;;11.57;98.01
69060;BME280;56135;37.534;-122.308;2023-03-26T00:26:54;102277.88;;;11.44;95.61
69060;BME280;56135;37.534;-122.308;2023-03-26T00:29:20;102279.72;;;11.50;98.21
69060;BME280;56135;37.534;-122.308;2023-03-26T00:31:47;102279.75;;;11.53;97.25
69060;BME280;56135;37.534;-122.308;2023-03-26T00:34:13;102273.44;;;11.39;98.76
69060;BME280;56135;37.534;-122.308;2023-03-26T00:36:42;102274.31;;;11.39;100.00
69060;BME280;56135;37.534;-122.308;2023-03-26T00:39:08;102273.59;;;11.60;97.60
69060;BME280;56135;37.534;-122.308;2023-03-26T00:41:34;102281.59;;;11.63;100.00
69060;BME280;56135;37.534;-122.308;2023-03-26T00:44:07;102269.00;;;11.34;99.69
69060;BME280;56135;37.534;-122.308;2023-03-26T00:46:33;102283.94;;;11.29;100.00
69060;BME280;56135;37.534;-122.308;2023-03-26T00:49:00;102268.84;;;11.16;100.00
69060;BME280;56135;37.534;-122.308;2023-03-26T00:51:28;102268.84;;;11.16;100.00
69060;BME280;56135;37.534;-122.308;2023-03-26T00:53:54;102264.50;;;11.23;100.00
69060;BME280;56135;37.534;-122.308;2023-03-26T00:56:20;102255.34;;;10.85;100.00
69060;BME280;56135;37.534;-122.308;2023-03-26T00:58:46;102253.63;;;10.92;100.00
69060;BME280;56135;37.534;-122.308;2023-03-26T01:01:18;102258.75;;;10.76;100.00
69060;BME280;56135;37.534;-122.308;2023-03-26T01:03:51;102243.72;;;10.71;100.00
69060;BME280;56135;37.534;-122.308;2023-03-26T01:06:31;102246.56;;;10.91;99.79
69060;BME280;56135;37.534;-122.308;2023-03-26T01:09:11;102243.66;;;10.64;100.00
69060;BME280;56135;37.534;-122.308;2023-03-26T01:11:38;102255.03;;;10.57;100.00
69060;BME280;56135;37.534;-122.308;2023-03-26T01:14:05;102252.59;;;10.77;100.00
69060;BME280;56135;37.534;-122.308;2023-03-26T01:16:36;102250.69;;;10.62;100.00
69060;BME280;56135;37.534;-122.308;2023-03-26T01:19:06;102251.38;;;10.49;100.00
69060;BME280;56135;37.534;-122.308;2023-03-26T01:21:34;102255.69;;;10.41;100.00
69060;BME280;56135;37.534;-122.308;2023-03-26T01:24:03;102253.13;;;10.45;100.00
69060;BME280;56135;37.534;-122.308;2023-03-26T01:28:55;102262.75;;;10.39;100.00
69060;BME280;56135;37.534;-122.308;2023-03-26T01:34:09;102263.06;;;9.97;100.00
69060;BME280;56135;37.534;-122.308;2023-03-26T01:36:54;102259.31;;;9.81;100.00
69060;BME280;56135;37.534;-122.308;2023-03-26T01:42:10;102263.13;;;10.05;100.00
69060;BME280;56135;37.534;-122.308;2023-03-26T01:44:47;102262.84;;;9.85;100.00
69060;BME280;56135;37.534;-122.308;2023-03-26T01:47:14;102261.00;;;9.78;100.00
69060;BME280;56135;37.534;-122.308;2023-03-26T01:49:42;102256.41;;;9.64;100.00
69060;BME280;56135;37.534;-122.308;2023-03-26T01:52:12;102255.22;;;9.47;100.00
69060;BME280;56135;37.534;-122.308;2023-03-26T01:54:39;102253.16;;;9.26;100.00
69060;BME280;56135;37.534;-122.308;2023-03-26T01:57:11;102254.91;;;9.25;100.00
69060;BME280;56135;37.534;-122.308;2023-03-26T01:59:55;102232.16;;;9.32;100.00
69060;BME280;56135;37.534;-122.308;2023-03-26T02:07:56;102254.91;;;9.27;100.00
69060;BME280;56135;37.534;-122.308;2023-03-26T02:10:34;102253.56;;;8.98;100.00
69060;BME280;56135;37.534;-122.308;2023-03-26T02:13:02;102247.47;;;9.02;100.00
69060;BME280;56135;37.534;-122.308;2023-03-26T02:15:28;102260.59;;;8.98;100.00
69060;BME280;56135;37.534;-122.308;2023-03-26T02:17:54;102249.91;;;8.90;100.00
69060;BME280;56135;37.534;-122.308;2023-03-26T02:20:20;102244.63;;;8.90;100.00
69060;BME280;56135;37.534;-122.308;2023-03-26T02:22:46;102245.34;;;8.83;100.00
69060;BME280;56135;37.534;-122.308;2023-03-26T02:25:16;102248.06;;;8.86;100.00
69060;BME280;56135;37.534;-122.308;2023-03-26T02:27:42;102245.34;;;8.83;100.00
69060;BME280;56135;37.534;-122.308;2023-03-26T02:30:10;102251.44;;;8.79;100.00
69060;BME280;56135;37.534;-122.308;2023-03-26T02:32:36;102244.13;;;8.64;100.00
69060;BME280;56135;37.534;-122.308;2023-03-26T02:35:03;102240.75;;;8.71;100.00
69060;BME280;56135;37.534;-122.308;2023-03-26T02:37:29;102250.31;;;8.66;100.00
69060;BME280;56135;37.534;-122.308;2023-03-26T02:39:58;102259.13;;;8.66;100.00
69060;BME280;56135;37.534;-122.308;2023-03-26T02:42:24;102258.94;;;8.57;100.00
69060;BME280;56135;37.534;-122.308;2023-03-26T02:44:50;102258.00;;;8.55;100.00
69060;BME280;56135;37.534;-122.308;2023-03-26T02:47:16;102263.16;;;8.49;100.00
69060;BME280;56135;37.534;-122.308;2023-03-26T02:49:42;102254.25;;;8.44;100.00
69060;BME280;56135;37.534;-122.308;2023-03-26T02:52:08;102245.41;;;8.42;100.00
69060;BME280;56135;37.534;-122.308;2023-03-26T02:54:34;102250.59;;;8.35;100.00
69060;BME280;56135;37.534;-122.308;2023-03-26T02:57:01;102247.75;;;8.26;100.00
69060;BME280;56135;37.534;-122.308;2023-03-26T02:59:27;102250.44;;;8.29;100.00
69060;BME280;56135;37.534;-122.308;2023-03-26T03:01:53;102253.94;;;8.28;100.00
69060;BME280;56135;37.534;-122.308;2023-03-26T03:04:19;102267.88;;;8.24;100.00
69060;BME280;56135;37.534;-122.308;2023-03-26T03:06:45;102263.63;;;8.31;100.00
69060;BME280;56135;37.534;-122.308;2023-03-26T03:09:11;102269.72;;;8.28;100.00
69060;BME280;56135;37.534;-122.308;2023-03-26T03:11:38;102275.72;;;8.21;100.00
69060;BME280;56135;37.534;-122.308;2023-03-26T03:14:04;102277.38;;;8.16;100.00
69060;BME280;56135;37.534;-122.308;2023-03-26T03:16:30;102278.22;;;8.15;100.00
69060;BME280;56135;37.534;-122.308;2023-03-26T03:18:56;102280.69;;;8.09;100.00
69060;BME280;56135;37.534;-122.308;2023-03-26T03:21:22;102277.22;;;8.10;100.00
69060;BME280;56135;37.534;-122.308;2023-03-26T03:23:48;102278.88;;;8.06;100.00
69060;BME280;56135;37.534;-122.308;2023-03-26T03:26:16;102287.59;;;8.04;100.00
69060;BME280;56135;37.534;-122.308;2023-03-26T03:29:05;102276.06;;;7.97;100.00
69060;BME280;56135;37.534;-122.308;2023-03-26T03:31:31;102285.66;;;7.93;100.00
69060;BME280;56135;37.534;-122.308;2023-03-26T03:33:57;102298.72;;;7.90;100.00
69060;BME280;56135;37.534;-122.308;2023-03-26T03:36:23;102297.91;;;7.93;100.00
69060;BME280;56135;37.534;-122.308;2023-03-26T03:39:00;102309.22;;;7.90;100.00
69060;BME280;56135;37.534;-122.308;2023-03-26T03:41:27;102317.13;;;7.90;100.00
69060;BME280;56135;37.534;-122.308;2023-03-26T03:43:53;102328.44;;;7.86;100.00
69060;BME280;56135;37.534;-122.308;2023-03-26T03:46:19;102334.69;;;7.90;100.00
69060;BME280;56135;37.534;-122.308;2023-03-26T03:48:44;102341.53;;;7.83;100.00
69060;BME280;56135;37.534;-122.308;2023-03-26T03:51:16;102352.91;;;7.82;100.00
69060;BME280;56135;37.534;-122.308;2023-03-26T03:53:45;102348.81;;;7.93;100.00
69060;BME280;56135;37.534;-122.308;2023-03-26T03:56:11;102353.13;;;7.91;100.00
69060;BME280;56135;37.534;-122.308;2023-03-26T03:58:38;102358.22;;;7.85;100.00
69060;BME280;56135;37.534;-122.308;2023-03-26T04:01:05;102363.44;;;7.82;100.00
69060;BME280;56135;37.534;-122.308;2023-03-26T04:03:31;102365.06;;;7.77;100.00
69060;BME280;56135;37.534;-122.308;2023-03-26T04:06:03;102359.75;;;7.75;100.00
69060;BME280;56135;37.534;-122.308;2023-03-26T04:08:31;102357.13;;;7.75;100.00
69060;BME280;56135;37.534;-122.308;2023-03-26T04:10:57;102364.91;;;7.71;100.00
69060;BME280;56135;37.534;-122.308;2023-03-26T04:13:25;102362.16;;;7.66;100.00
69060;BME280;56135;37.534;-122.308;2023-03-26T04:15:51;102359.50;;;7.64;100.00
69060;BME280;56135;37.534;-122.308;2023-03-26T04:18:16;102347.03;;;7.57;100.00
69060;BME280;56135;37.534;-122.308;2023-03-26T04:20:43;102356.66;;;7.57;100.00
69060;BME280;56135;37.534;-122.308;2023-03-26T04:23:12;102347.69;;;7.48;100.00
69060;BME280;56135;37.534;-122.308;2023-03-26T04:25:42;102338.75;;;7.42;100.00
69060;BME280;56135;37.534;-122.308;2023-03-26T04:28:15;102358.84;;;7.40;100.00
69060;BME280;56135;37.534;-122.308;2023-03-26T04:30:46;102343.41;;;7.52;100.00
69060;BME280;56135;37.534;-122.308;2023-03-26T04:33:13;102353.16;;;7.56;100.00
69060;BME280;56135;37.534;-122.308;2023-03-26T04:35:39;102352.34;;;7.59;100.00
69060;BME280;56135;37.534;-122.308;2023-03-26T04:38:08;102339.91;;;7.53;100.00
69060;BME280;56135;37.534;-122.308;2023-03-26T04:40:54;102352.16;;;7.51;100.00
69060;BME280;56135;37.534;-122.308;2023-03-26T04:43:24;102346.03;;;7.52;100.00
69060;BME280;56135;37.534;-122.308;2023-03-26T04:45:50;102358.31;;;7.53;100.00
69060;BME280;56135;37.534;-122.308;2023-03-26T04:48:17;102358.25;;;7.50;100.00
69060;BME280;56135;37.534;-122.308;2023-03-26T04:50:44;102353.75;;;7.46;100.00
69060;BME280;56135;37.534;-122.308;2023-03-26T04:53:11;102352.75;;;7.41;100.00
69060;BME280;56135;37.534;-122.308;2023-03-26T04:55:40;102349.00;;;7.31;100.00
69060;BME280;56135;37.534;-122.308;2023-03-26T04:58:07;102344.59;;;7.30;100.00
69060;BME280;56135;37.534;-122.308;2023-03-26T05:00:33;102355.31;;;7.38;100.00
69060;BME280;56135;37.534;-122.308;2023-03-26T05:02:59;102359.63;;;7.35;100.00
69060;BME280;56135;37.534;-122.308;2023-03-26T05:05:26;102367.44;;;7.32;100.00
69060;BME280;56135;37.534;-122.308;2023-03-26T05:07:53;102367.34;;;7.29;100.00
69060;BME280;56135;37.534;-122.308;2023-03-26T05:10:19;102375.22;;;7.29;100.00
69060;BME280;56135;37.534;-122.308;2023-03-26T05:12:45;102377.00;;;7.30;100.00
69060;BME280;56135;37.534;-122.308;2023-03-26T05:15:11;102384.75;;;7.24;100.00
69060;BME280;56135;37.534;-122.308;2023-03-26T05:17:37;102379.56;;;7.27;100.00
69060;BME280;56135;37.534;-122.308;2023-03-26T05:20:09;102380.31;;;7.22;100.00
69060;BME280;56135;37.534;-122.308;2023-03-26T05:22:41;102375.84;;;7.19;100.00
69060;BME280;56135;37.534;-122.308;2023-03-26T05:25:07;102376.66;;;7.16;100.00
69060;BME280;56135;37.534;-122.308;2023-03-26T05:27:33;102375.66;;;7.13;100.00
69060;BME280;56135;37.534;-122.308;2023-03-26T05:30:00;102386.94;;;7.09;100.00
69060;BME280;56135;37.534;-122.308;2023-03-26T05:32:26;102392.06;;;7.04;100.00
69060;BME280;56135;37.534;-122.308;2023-03-26T05:34:54;102389.50;;;7.06;100.00
69060;BME280;56135;37.534;-122.308;2023-03-26T05:37:20;102385.84;;;7.00;100.00
69060;BME280;56135;37.534;-122.308;2023-03-26T05:39:54;102390.19;;;7.00;100.00
69060;BME280;56135;37.534;-122.308;2023-03-26T05:42:20;102387.69;;;7.03;100.00
69060;BME280;56135;37.534;-122.308;2023-03-26T05:44:55;102384.25;;;7.06;100.00
69060;BME280;56135;37.534;-122.308;2023-03-26T05:47:21;102382.31;;;7.00;100.00
69060;BME280;56135;37.534;-122.308;2023-03-26T05:49:46;102382.09;;;6.92;100.00
69060;BME280;56135;37.534;-122.308;2023-03-26T05:52:12;102384.78;;;6.94;100.00
69060;BME280;56135;37.534;-122.308;2023-03-26T05:54:43;102389.06;;;6.90;100.00
69060;BME280;56135;37.534;-122.308;2023-03-26T05:57:09;102383.72;;;6.87;100.00
69060;BME280;56135;37.534;-122.308;2023-03-26T05:59:35;102380.19;;;6.87;100.00
69060;BME280;56135;37.534;-122.308;2023-03-26T06:02:01;102380.16;;;6.85;100.00
69060;BME280;56135;37.534;-122.308;2023-03-26T06:04:27;102388.03;;;6.85;100.00
69060;BME280;56135;37.534;-122.308;2023-03-26T06:06:52;102383.50;;;6.79;100.00
69060;BME280;56135;37.534;-122.308;2023-03-26T06:09:18;102380.88;;;6.79;100.00
69060;BME280;56135;37.534;-122.308;2023-03-26T06:11:44;102379.81;;;6.73;100.00
69060;BME280;56135;37.534;-122.308;2023-03-26T06:14:10;102372.41;;;6.59;100.00
69060;BME280;56135;37.534;-122.308;2023-03-26T06:16:36;102365.22;;;6.54;100.00
69060;BME280;56135;37.534;-122.308;2023-03-26T06:19:02;102372.13;;;6.50;100.00
69060;BME280;56135;37.534;-122.308;2023-03-26T06:21:27;102375.63;;;6.50;100.00
69060;BME280;56135;37.534;-122.308;2023-03-26T06:23:54;102379.84;;;6.45;100.00
69060;BME280;56135;37.534;-122.308;2023-03-26T06:26:20;102371.06;;;6.43;100.00
69060;BME280;56135;37.534;-122.308;2023-03-26T06:28:46;102382.41;;;6.42;100.00
69060;BME280;56135;37.534;-122.308;2023-03-26T06:31:12;102387.59;;;6.41;100.00
69060;BME280;56135;37.534;-122.308;2023-03-26T06:33:37;102381.34;;;6.37;100.00
69060;BME280;56135;37.534;-122.308;2023-03-26T06:36:06;102388.41;;;6.38;100.00
69060;BME280;56135;37.534;-122.308;2023-03-26T06:38:32;102383.94;;;6.36;100.00
69060;BME280;56135;37.534;-122.308;2023-03-26T06:41:04;102390.00;;;6.33;100.00
69060;BME280;56135;37.534;-122.308;2023-03-26T06:43:31;102383.81;;;6.32;100.00
69060;BME280;56135;37.534;-122.308;2023-03-26T06:46:00;102385.50;;;6.29;100.00
69060;BME280;56135;37.534;-122.308;2023-03-26T06:48:26;102389.03;;;6.31;100.00
69060;BME280;56135;37.534;-122.308;2023-03-26T06:50:52;102385.63;;;6.33;100.00
69060;BME280;56135;37.534;-122.308;2023-03-26T06:53:18;102392.56;;;6.31;100.00
69060;BME280;56135;37.534;-122.308;2023-03-26T06:55:44;102392.56;;;6.31;100.00
69060;BME280;56135;37.534;-122.308;2023-03-26T06:58:10;102398.59;;;6.29;100.00
69060;BME280;56135;37.534;-122.308;2023-03-26T07:00:36;102394.28;;;6.31;100.00
69060;BME280;56135;37.534;-122.308;2023-03-26T07:03:03;102388.16;;;6.30;100.00
69060;BME280;56135;37.534;-122.308;2023-03-26T07:05:28;102388.06;;;6.27;100.00
69060;BME280;56135;37.534;-122.308;2023-03-26T07:07:54;102397.75;;;6.30;100.00
69060;BME280;56135;37.534;-122.308;2023-03-26T07:10:20;102399.44;;;6.28;100.00
69060;BME280;56135;37.534;-122.308;2023-03-26T07:12:46;102390.69;;;6.27;100.00
69060;BME280;56135;37.534;-122.308;2023-03-26T07:15:12;102390.78;;;6.30;100.00
69060;BME280;56135;37.534;-122.308;2023-03-26T07:17:38;102387.16;;;6.27;100.00
69060;BME280;56135;37.534;-122.308;2023-03-26T07:20:04;102395.00;;;6.25;100.00
69060;BME280;56135;37.534;-122.308;2023-03-26T07:22:30;102397.63;;;6.25;100.00
69060;BME280;56135;37.534;-122.308;2023-03-26T07:24:56;102404.66;;;6.26;100.00
69060;BME280;56135;37.534;-122.308;2023-03-26T07:27:26;102410.75;;;6.25;100.00
69060;BME280;56135;37.534;-122.308;2023-03-26T07:30:07;102406.25;;;6.21;100.00
69060;BME280;56135;37.534;-122.308;2023-03-26T07:37:41;102407.78;;;6.14;100.00
69060;BME280;56135;37.534;-122.308;2023-03-26T07:43:01;102409.28;;;6.06;100.00
69060;BME280;56135;37.534;-122.308;2023-03-26T07:45:38;102410.88;;;6.03;100.00
69060;BME280;56135;37.534;-122.308;2023-03-26T07:48:11;102405.59;;;6.01;100.00
69060;BME280;56135;37.534;-122.308;2023-03-26T07:50:40;102416.88;;;5.98;100.00
69060;BME280;56135;37.534;-122.308;2023-03-26T07:53:06;102416.06;;;5.99;100.00
69060;BME280;56135;37.534;-122.308;2023-03-26T07:55:31;102416.88;;;5.98;100.00
69060;BME280;56135;37.534;-122.308;2023-03-26T08:00:29;102426.38;;;5.96;100.00
69060;BME280;56135;37.534;-122.308;2023-03-26T08:03:14;102421.97;;;5.95;100.00
69060;BME280;56135;37.534;-122.308;2023-03-26T08:05:42;102426.38;;;5.96;100.00
69060;BME280;56135;37.534;-122.308;2023-03-26T08:08:15;102428.16;;;5.97;100.00
69060;BME280;56135;37.534;-122.308;2023-03-26T08:13:21;102418.50;;;5.96;100.00
69060;BME280;56135;37.534;-122.308;2023-03-26T08:18:44;102425.50;;;5.96;100.00
69060;BME280;56135;37.534;-122.308;2023-03-26T08:21:16;102425.34;;;5.91;100.00
69060;BME280;56135;37.534;-122.308;2023-03-26T08:23:57;102417.47;;;5.91;100.00
69060;BME280;56135;37.534;-122.308;2023-03-26T08:26:41;102413.75;;;5.84;100.00
69060;BME280;56135;37.534;-122.308;2023-03-26T08:31:40;102403.91;;;5.77;100.00
69060;BME280;56135;37.534;-122.308;2023-03-26T08:34:09;102399.28;;;5.70;100.00
69060;BME280;56135;37.534;-122.308;2023-03-26T08:36:35;102400.22;;;5.72;100.00
69060;BME280;56135;37.534;-122.308;2023-03-26T08:39:01;102401.06;;;5.71;100.00
69060;BME280;56135;37.534;-122.308;2023-03-26T08:49:31;102393.53;;;5.55;100.00
69060;BME280;56135;37.534;-122.308;2023-03-26T08:52:19;102390.13;;;5.57;100.00
69060;BME280;56135;37.534;-122.308;2023-03-26T09:21:19;102384.34;;;5.42;100.00
69060;BME280;56135;37.534;-122.308;2023-03-26T09:27:01;102380.06;;;5.44;100.00
69060;BME280;56135;37.534;-122.308;2023-03-26T09:29:47;102373.03;;;5.43;100.00
69060;BME280;56135;37.534;-122.308;2023-03-26T09:32:36;102364.13;;;5.38;100.00
69060;BME280;56135;37.534;-122.308;2023-03-26T09:37:57;102363.28;;;5.39;100.00
69060;BME280;56135;37.534;-122.308;2023-03-26T09:56:04;102379.47;;;5.03;100.00
69060;BME280;56135;37.534;-122.308;2023-03-26T10:08:56;102398.03;;;4.84;100.00
69060;BME280;56135;37.534;-122.308;2023-03-26T10:14:17;102391.88;;;4.84;100.00
69060;BME280;56135;37.534;-122.308;2023-03-26T10:17:10;102390.88;;;4.80;100.00
69060;BME280;56135;37.534;-122.308;2023-03-26T10:19:50;102391.03;;;4.85;100.00
69060;BME280;56135;37.534;-122.308;2023-03-26T10:25:12;102371.00;;;4.86;100.00
69060;BME280;56135;37.534;-122.308;2023-03-26T10:35:25;102377.75;;;4.79;100.00
69060;BME280;56135;37.534;-122.308;2023-03-26T10:45:53;102372.38;;;4.76;100.00
69060;BME280;56135;37.534;-122.308;2023-03-26T10:48:29;102375.81;;;4.75;100.00
69060;BME280;56135;37.534;-122.308;2023-03-26T10:56:25;102369.47;;;4.68;100.00
69060;BME280;56135;37.534;-122.308;2023-03-26T10:58:52;102375.41;;;4.64;100.00
69060;BME280;56135;37.534;-122.308;2023-03-26T11:13:57;102383.13;;;4.59;100.00
69060;BME280;56135;37.534;-122.308;2023-03-26T11:21:38;102376.13;;;4.60;100.00
69060;BME280;56135;37.534;-122.308;2023-03-26T11:24:27;102362.94;;;4.57;100.00
69060;BME280;56135;37.534;-122.308;2023-03-26T11:27:41;102368.00;;;4.52;100.00
69060;BME280;56135;37.534;-122.308;2023-03-26T11:29:48;102362.72;;;4.50;100.00
69060;BME280;56135;37.534;-122.308;2023-03-26T11:32:25;102372.88;;;4.43;100.00
69060;BME280;56135;37.534;-122.308;2023-03-26T11:37:19;102365.69;;;4.37;100.00
69060;BME280;56135;37.534;-122.308;2023-03-26T11:39:51;102359.53;;;4.35;100.00
69060;BME280;56135;37.534;-122.308;2023-03-26T11:42:20;102370.03;;;4.37;100.00
69060;BME280;56135;37.534;-122.308;2023-03-26T11:44:52;102369.13;;;4.36;100.00
69060;BME280;56135;37.534;-122.308;2023-03-26T11:47:22;102366.47;;;4.34;100.00
69060;BME280;56135;37.534;-122.308;2023-03-26T11:49:50;102369.91;;;4.33;100.00
69060;BME280;56135;37.534;-122.308;2023-03-26T11:52:17;102363.69;;;4.30;100.00
69060;BME280;56135;37.534;-122.308;2023-03-26T11:54:43;102360.03;;;4.26;100.00
69060;BME280;56135;37.534;-122.308;2023-03-26T11:57:14;102361.69;;;4.24;100.00
69060;BME280;56135;37.534;-122.308;2023-03-26T11:59:49;102358.81;;;4.16;100.00
69060;BME280;56135;37.534;-122.308;2023-03-26T12:02:22;102362.25;;;4.15;100.00
69060;BME280;56135;37.534;-122.308;2023-03-26T12:04:51;102362.03;;;4.11;100.00
69060;BME280;56135;37.534;-122.308;2023-03-26T12:07:30;102367.41;;;4.14;100.00
69060;BME280;56135;37.534;-122.308;2023-03-26T12:10:05;102369.88;;;4.11;100.00
69060;BME280;56135;37.534;-122.308;2023-03-26T12:12:41;102369.66;;;4.05;100.00
69060;BME280;56135;37.534;-122.308;2023-03-26T12:17:39;102371.91;;;3.95;100.00
69060;BME280;56135;37.534;-122.308;2023-03-26T12:22:54;102370.69;;;3.87;100.00
69060;BME280;56135;37.534;-122.308;2023-03-26T12:25:24;102369.63;;;3.82;100.00
69060;BME280;56135;37.534;-122.308;2023-03-26T12:27:51;102370.25;;;3.76;100.00
69060;BME280;56135;37.534;-122.308;2023-03-26T12:30:22;102367.44;;;3.72;100.00
69060;BME280;56135;37.534;-122.308;2023-03-26T12:32:50;102366.44;;;3.68;100.00
69060;BME280;56135;37.534;-122.308;2023-03-26T12:35:18;102380.19;;;3.64;100.00
69060;BME280;56135;37.534;-122.308;2023-03-26T12:37:51;102373.94;;;3.60;100.00
69060;BME280;56135;37.534;-122.308;2023-03-26T12:42:53;102380.91;;;3.60;100.00
69060;BME280;56135;37.534;-122.308;2023-03-26T12:45:27;102382.53;;;3.58;100.00
69060;BME280;56135;37.534;-122.308;2023-03-26T12:47:53;102387.59;;;3.53;100.00
69060;BME280;56135;37.534;-122.308;2023-03-26T12:50:20;102383.75;;;3.45;100.00
69060;BME280;56135;37.534;-122.308;2023-03-26T12:53:07;102386.97;;;3.39;100.00
69060;BME280;56135;37.534;-122.308;2023-03-26T12:58:28;102386.50;;;3.48;100.00
69060;BME280;56135;37.534;-122.308;2023-03-26T13:06:16;102386.03;;;3.37;100.00
69060;BME280;56135;37.534;-122.308;2023-03-26T13:14:25;102383.22;;;3.32;100.00
69060;BME280;56135;37.534;-122.308;2023-03-26T13:16:58;102388.38;;;3.31;100.00
69060;BME280;56135;37.534;-122.308;2023-03-26T13:35:17;102401.38;;;2.90;100.00
69060;BME280;56135;37.534;-122.308;2023-03-26T13:40:33;102404.53;;;2.83;100.00
69060;BME280;56135;37.534;-122.308;2023-03-26T13:51:19;102396.00;;;2.67;100.00
69060;BME280;56135;37.534;-122.308;2023-03-26T13:53:55;102392.63;;;2.70;100.00
69060;BME280;56135;37.534;-122.308;2023-03-26T13:56:33;102394.22;;;2.66;100.00
69060;BME280;56135;37.534;-122.308;2023-03-26T13:59:02;102405.13;;;2.58;100.00
69060;BME280;56135;37.534;-122.308;2023-03-26T14:01:33;102399.63;;;2.52;100.00
69060;BME280;56135;37.534;-122.308;2023-03-26T14:04:09;102401.47;;;2.54;100.00
69060;BME280;56135;37.534;-122.308;2023-03-26T14:06:42;102404.69;;;2.48;100.00
69060;BME280;56135;37.534;-122.308;2023-03-26T14:09:24;102404.69;;;2.48;100.00
69060;BME280;56135;37.534;-122.308;2023-03-26T14:11:57;102401.09;;;2.46;100.00
69060;BME280;56135;37.534;-122.308;2023-03-26T14:17:20;102414.91;;;2.44;100.00
69060;BME280;56135;37.534;-122.308;2023-03-26T14:20:01;102421.84;;;2.43;100.00
69060;BME280;56135;37.534;-122.308;2023-03-26T14:22:38;102429.59;;;2.42;100.00
69060;BME280;56135;37.534;-122.308;2023-03-26T14:25:15;102427.88;;;2.42;100.00
69060;BME280;56135;37.534;-122.308;2023-03-26T14:35:58;102441.91;;;2.44;100.00
69060;BME280;56135;37.534;-122.308;2023-03-26T14:51:56;102464.97;;;2.73;100.00
69060;BME280;56135;37.534;-122.308;2023-03-26T14:54:25;102475.03;;;2.83;100.00
69060;BME280;56135;37.534;-122.308;2023-03-26T14:56:56;102470.28;;;2.94;100.00
69060;BME280;56135;37.534;-122.308;2023-03-26T15:23:18;102488.22;;;4.47;100.00
69060;BME280;56135;37.534;-122.308;2023-03-26T15:31:25;102477.34;;;5.29;100.00
69060;BME280;56135;37.534;-122.308;2023-03-26T15:42:08;102486.75;;;6.49;100.00
69060;BME280;56135;37.534;-122.308;2023-03-26T15:44:41;102479.97;;;6.85;100.00
69060;BME280;56135;37.534;-122.308;2023-03-26T15:47:18;102472.19;;;7.18;100.00
69060;BME280;56135;37.534;-122.308;2023-03-26T15:49:57;102473.91;;;7.48;100.00
69060;BME280;56135;37.534;-122.308;2023-03-26T15:55:08;102476.53;;;8.15;100.00
69060;BME280;56135;37.534;-122.308;2023-03-26T15:57:43;102475.75;;;8.55;100.00
69060;BME280;56135;37.534;-122.308;2023-03-26T16:05:34;102472.63;;;9.55;100.00
69060;BME280;56135;37.534;-122.308;2023-03-26T16:08:09;102474.09;;;9.88;96.65
69060;BME280;56135;37.534;-122.308;2023-03-26T16:10:53;102467.72;;;10.29;95.83
69060;BME280;56135;37.534;-122.308;2023-03-26T16:13:27;102468.97;;;10.49;87.37
69060;BME280;56135;37.534;-122.308;2023-03-26T16:18:29;102476.56;;;10.88;78.75
69060;BME280;56135;37.534;-122.308;2023-03-26T16:33:54;102478.47;;;12.89;70.41
69060;BME280;56135;37.534;-122.308;2023-03-26T16:49:31;102492.13;;;14.28;59.59
69060;BME280;56135;37.534;-122.308;2023-03-26T16:52:03;102494.78;;;14.45;65.26
69060;BME280;56135;37.534;-122.308;2023-03-26T16:54:42;102493.88;;;14.77;59.48
69060;BME280;56135;37.534;-122.308;2023-03-26T16:57:26;102492.91;;;14.99;58.08
69060;BME280;56135;37.534;-122.308;2023-03-26T17:02:32;102498.75;;;15.82;53.09
69060;BME280;56135;37.534;-122.308;2023-03-26T17:05:07;102494.34;;;15.81;48.32
69060;BME280;56135;37.534;-122.308;2023-03-26T17:07:45;102497.88;;;15.74;48.00
69060;BME280;56135;37.534;-122.308;2023-03-26T17:10:21;102497.75;;;15.98;52.83
69060;BME280;56135;37.534;-122.308;2023-03-26T17:15:29;102486.25;;;15.92;47.27
69060;BME280;56135;37.534;-122.308;2023-03-26T17:20:34;102492.50;;;15.86;47.43
69060;BME280;56135;37.534;-122.308;2023-03-26T17:28:46;102490.31;;;16.38;50.30
69060;BME280;56135;37.534;-122.308;2023-03-26T17:31:51;102494.97;;;17.06;44.28
69060;BME280;56135;37.534;-122.308;2023-03-26T17:36:56;102489.09;;;16.73;44.61
69060;BME280;56135;37.534;-122.308;2023-03-26T17:42:37;102497.72;;;16.01;44.34
69060;BME280;56135;37.534;-122.308;2023-03-26T17:45:15;102498.78;;;15.71;43.71